createdAt,value
2022-09-28T00:00:11.065Z,13.35
2022-09-28T00:01:10.735Z,13.35
2022-09-28T00:02:11.416Z,13.3741
2022-09-28T00:03:10.009Z,13.3741
2022-09-28T00:04:10.022Z,13.35
2022-09-28T00:05:11.348Z,13.35
2022-09-28T00:06:11.198Z,13.356
2022-09-28T00:07:10.920Z,13.3741
2022-09-28T00:08:11.472Z,13.356
2022-09-28T00:09:09.634Z,13.327
2022-09-28T00:10:11.731Z,13.322
2022-09-28T00:11:11.059Z,13.339
2022-09-28T00:12:10.899Z,13.333
2022-09-28T00:13:11.877Z,13.333
2022-09-28T00:14:11.661Z,13.345
2022-09-28T00:15:10.779Z,13.322
2022-09-28T00:16:11.919Z,13.3108
2022-09-28T00:17:11.326Z,13.3
2022-09-28T00:18:10.573Z,13.305
2022-09-28T00:19:10.892Z,13.3
2022-09-28T00:20:11.191Z,13.285
2022-09-28T00:21:10.910Z,13.29
2022-09-28T00:22:11.290Z,13.295
2022-09-28T00:23:10.453Z,13.285
2022-09-28T00:24:11.652Z,13.255
2022-09-28T00:25:11.354Z,13.255
2022-09-28T00:26:11.322Z,13.205
2022-09-28T00:27:11.023Z,13.209
2022-09-28T00:28:10.462Z,13.21
2022-09-28T00:29:09.722Z,13.1841
2022-09-28T00:30:11.125Z,13.16
2022-09-28T00:31:11.218Z,13.1258
2022-09-28T00:32:09.979Z,13.115
2022-09-28T00:33:11.258Z,13.09
2022-09-28T00:34:09.918Z,13.08
2022-09-28T00:35:10.587Z,13.075
2022-09-28T00:36:11.266Z,13.07
2022-09-28T00:37:10.595Z,13.07
2022-09-28T00:38:10.320Z,13.085
2022-09-28T00:39:10.884Z,13.07
2022-09-28T00:40:10.504Z,13.03
2022-09-28T00:41:10.475Z,13.0109
2022-09-28T00:42:11.304Z,13.0092
2022-09-28T00:43:10.496Z,13.005
2022-09-28T00:44:10.494Z,12.9815
2022-09-28T00:45:10.731Z,13
2022-09-28T00:46:09.999Z,12.995
2022-09-28T00:47:11.249Z,12.9815
2022-09-28T00:48:10.763Z,13.0054
2022-09-28T00:49:09.683Z,12.99
2022-09-28T00:50:10.464Z,12.99
2022-09-28T00:51:10.807Z,12.98
2022-09-28T00:52:10.469Z,12.985
2022-09-28T00:53:10.977Z,12.965
2022-09-28T00:54:09.720Z,12.97
2022-09-28T00:55:11.851Z,12.955
2022-09-28T00:56:11.178Z,12.955
2022-09-28T00:57:11.135Z,12.97
2022-09-28T00:58:10.065Z,12.96
2022-09-28T00:59:09.836Z,12.96
2022-09-28T01:00:10.381Z,12.965
2022-09-28T01:01:11.605Z,12.975
2022-09-28T01:02:11.198Z,12.96
2022-09-28T01:03:11.348Z,12.97
2022-09-28T01:04:09.944Z,12.97
2022-09-28T01:05:10.417Z,12.945
2022-09-28T01:06:10.646Z,12.935
2022-09-28T01:07:11.218Z,12.92
2022-09-28T01:08:10.412Z,12.915
2022-09-28T01:09:10.788Z,12.9
2022-09-28T01:10:10.917Z,12.915
2022-09-28T01:11:11.316Z,12.9
2022-09-28T01:12:10.927Z,12.894
2022-09-28T01:13:10.646Z,12.89
2022-09-28T01:14:10.849Z,12.895
2022-09-28T01:15:11.088Z,12.8791
2022-09-28T01:16:10.883Z,12.8791
2022-09-28T01:17:11.641Z,12.85
2022-09-28T01:18:11.127Z,12.85
2022-09-28T01:19:09.729Z,12.839
2022-09-28T01:20:11.389Z,12.845
2022-09-28T01:21:10.360Z,12.85
2022-09-28T01:22:11.534Z,12.85
2022-09-28T01:23:11.380Z,12.839
2022-09-28T01:24:09.984Z,12.85
2022-09-28T01:25:11.372Z,12.8683
2022-09-28T01:26:11.664Z,12.856
2022-09-28T01:27:10.966Z,12.856
2022-09-28T01:28:11.687Z,12.856
2022-09-28T01:29:11.094Z,12.862
2022-09-28T01:30:11.049Z,12.856
2022-09-28T01:31:11.552Z,12.85
2022-09-28T01:32:10.693Z,12.885
2022-09-28T01:33:11.845Z,12.8791
2022-09-28T01:34:10.253Z,12.833
2022-09-28T01:35:10.314Z,12.845
2022-09-28T01:36:11.657Z,12.85
2022-09-28T01:37:11.024Z,12.85
2022-09-28T01:38:11.085Z,12.85
2022-09-28T01:39:10.987Z,12.8216
2022-09-28T01:40:10.450Z,12.834
2022-09-28T01:41:10.261Z,12.8158
2022-09-28T01:42:11.325Z,12.805
2022-09-28T01:43:11.244Z,12.817
2022-09-28T01:44:09.310Z,12.8
2022-09-28T01:45:11.442Z,12.827
2022-09-28T01:46:11.187Z,12.817
2022-09-28T01:47:10.463Z,12.828
2022-09-28T01:48:11.163Z,12.816
2022-09-28T01:49:10.050Z,12.827
2022-09-28T01:50:10.220Z,12.845
2022-09-28T01:51:11.426Z,12.8216
2022-09-28T01:52:11.362Z,12.827
2022-09-28T01:53:09.948Z,12.8
2022-09-28T01:54:10.353Z,12.822
2022-09-28T01:55:10.879Z,12.795
2022-09-28T01:56:10.572Z,12.755
2022-09-28T01:57:11.488Z,12.755
2022-09-28T01:58:10.764Z,12.755
2022-09-28T01:59:10.640Z,12.755
2022-09-28T02:00:11.182Z,12.755
2022-09-28T02:01:11.100Z,12.74
2022-09-28T02:02:11.556Z,12.755
2022-09-28T02:03:11.133Z,12.77
2022-09-28T02:04:10.002Z,12.75
2022-09-28T02:05:11.477Z,12.75
2022-09-28T02:06:10.589Z,12.77
2022-09-28T02:07:10.340Z,12.7718
2022-09-28T02:08:11.014Z,12.7638
2022-09-28T02:09:09.706Z,12.7772
2022-09-28T02:10:09.831Z,12.765
2022-09-28T02:11:10.834Z,12.76
2022-09-28T02:12:10.560Z,12.77
2022-09-28T02:13:10.729Z,12.765
2022-09-28T02:14:10.233Z,12.745
2022-09-28T02:15:10.512Z,12.735
2022-09-28T02:16:11.547Z,12.712
2022-09-28T02:17:10.753Z,12.7063
2022-09-28T02:18:10.158Z,12.699
2022-09-28T02:19:10.397Z,12.666
2022-09-28T02:20:11.226Z,12.672
2022-09-28T02:21:10.380Z,12.637
2022-09-28T02:22:10.752Z,12.615
2022-09-28T02:23:10.681Z,12.605
2022-09-28T02:24:09.650Z,12.595
2022-09-28T02:25:11.456Z,12.595
2022-09-28T02:26:10.466Z,12.595
2022-09-28T02:27:10.837Z,12.59
2022-09-28T02:28:10.627Z,12.59
2022-09-28T02:29:11.010Z,12.57
2022-09-28T02:30:10.900Z,12.57
2022-09-28T02:31:10.623Z,12.545
2022-09-28T02:32:11.090Z,12.53
2022-09-28T02:33:10.833Z,12.525
2022-09-28T02:34:10.112Z,12.495
2022-09-28T02:35:10.675Z,12.49
2022-09-28T02:36:09.781Z,12.47
2022-09-28T02:37:11.481Z,12.455
2022-09-28T02:38:10.544Z,12.455
2022-09-28T02:39:11.891Z,12.455
2022-09-28T02:40:10.941Z,12.42
2022-09-28T02:41:10.887Z,12.415
2022-09-28T02:42:10.855Z,12.41
2022-09-28T02:43:20.055Z,12.384
2022-09-28T02:44:09.787Z,12.3791
2022-09-28T02:45:11.820Z,12.38
2022-09-28T02:46:10.971Z,12.39
2022-09-28T02:47:10.621Z,12.3741
2022-09-28T02:48:11.790Z,12.383
2022-09-28T02:49:21.410Z,12.3791
2022-09-28T02:50:10.985Z,12.3741
2022-09-28T02:51:11.635Z,12.3791
2022-09-28T02:52:11.272Z,12.3741
2022-09-28T02:53:10.810Z,12.38
2022-09-28T02:54:14.352Z,12.3791
2022-09-28T02:55:10.945Z,12.362
2022-09-28T02:56:10.728Z,12.3741
2022-09-28T02:57:11.043Z,12.356
2022-09-28T02:58:10.741Z,12.345
2022-09-28T02:59:10.265Z,12.361
2022-09-28T03:00:11.519Z,12.362
2022-09-28T03:01:11.185Z,12.339
2022-09-28T03:02:10.421Z,12.339
2022-09-28T03:03:10.559Z,12.328
2022-09-28T03:04:10.094Z,12.311
2022-09-28T03:05:09.996Z,12.285
2022-09-28T03:06:11.028Z,12.255
2022-09-28T03:07:11.003Z,12.245
2022-09-28T03:08:10.499Z,12.245
2022-09-28T03:09:10.979Z,12.225
2022-09-28T03:10:10.266Z,12.205
2022-09-28T03:11:11.358Z,12.1891
2022-09-28T03:12:10.835Z,12.194
2022-09-28T03:13:10.282Z,12.1841
2022-09-28T03:14:10.678Z,12.195
2022-09-28T03:15:11.191Z,12.1841
2022-09-28T03:16:11.297Z,12.194
2022-09-28T03:17:10.590Z,12.21
2022-09-28T03:18:10.788Z,12.2
2022-09-28T03:19:11.043Z,12.205
2022-09-28T03:20:10.712Z,12.2
2022-09-28T03:21:10.366Z,12.1891
2022-09-28T03:22:11.525Z,12.183
2022-09-28T03:23:24.861Z,12.2
2022-09-28T03:24:09.998Z,12.2118
2022-09-28T03:25:11.293Z,12.2038
2022-09-28T03:26:10.734Z,12.1841
2022-09-28T03:27:11.504Z,12.16
2022-09-28T03:28:10.980Z,12.155
2022-09-28T03:29:10.911Z,12.115
2022-09-28T03:30:10.599Z,12.11
2022-09-28T03:31:10.841Z,12.0784
2022-09-28T03:32:10.137Z,12.0818
2022-09-28T03:33:11.320Z,12.08
2022-09-28T03:34:11.400Z,12.01
2022-09-28T03:35:11.677Z,12.0184
2022-09-28T03:36:11.376Z,11.9836
2022-09-28T03:37:10.969Z,11.98
2022-09-28T03:38:10.930Z,11.9907
2022-09-28T03:39:11.086Z,11.989
2022-09-28T03:40:10.921Z,12
2022-09-28T03:41:11.236Z,11.985
2022-09-28T03:42:10.612Z,12
2022-09-28T03:43:10.991Z,11.99
2022-09-28T03:44:11.164Z,11.995
2022-09-28T03:45:10.880Z,11.955
2022-09-28T03:46:11.583Z,11.96
2022-09-28T03:47:10.477Z,11.925
2022-09-28T03:48:09.814Z,11.935
2022-09-28T03:49:11.952Z,11.96
2022-09-28T03:50:11.011Z,11.94
2022-09-28T03:51:10.952Z,11.95
2022-09-28T03:52:11.788Z,11.955
2022-09-28T03:53:11.745Z,11.935
2022-09-28T03:54:10.396Z,11.935
2022-09-28T03:55:10.760Z,11.945
2022-09-28T03:56:10.802Z,11.94
2022-09-28T03:57:10.416Z,11.91
2022-09-28T03:58:10.922Z,11.915
2022-09-28T03:59:10.160Z,11.894
2022-09-28T04:00:11.077Z,11.8683
2022-09-28T04:01:16.522Z,11.862
2022-09-28T04:02:11.126Z,11.89
2022-09-28T04:03:11.060Z,11.862
2022-09-28T04:04:10.317Z,11.873
2022-09-28T04:05:11.107Z,11.862
2022-09-28T04:06:10.591Z,11.862
2022-09-28T04:07:11.055Z,11.833
2022-09-28T04:08:11.380Z,11.833
2022-09-28T04:09:10.093Z,11.816
2022-09-28T04:10:11.680Z,11.795
2022-09-28T04:11:11.142Z,11.8158
2022-09-28T04:12:10.008Z,11.827
2022-09-28T04:13:11.568Z,11.845
2022-09-28T04:14:11.210Z,11.873
2022-09-28T04:15:10.169Z,11.827
2022-09-28T04:16:10.778Z,11.8216
2022-09-28T04:17:10.889Z,11.833
2022-09-28T04:18:11.500Z,11.8683
2022-09-28T04:19:10.422Z,11.878
2022-09-28T04:20:10.021Z,11.905
2022-09-28T04:21:11.106Z,11.9
2022-09-28T04:22:11.003Z,11.9
2022-09-28T04:23:10.681Z,11.89
2022-09-28T04:24:09.850Z,11.895
2022-09-28T04:25:11.350Z,11.925
2022-09-28T04:26:11.777Z,11.92
2022-09-28T04:27:10.692Z,11.93
2022-09-28T04:28:10.057Z,11.935
2022-09-28T04:29:11.027Z,11.94
2022-09-28T04:30:11.093Z,11.955
2022-09-28T04:31:11.723Z,11.95
2022-09-28T04:32:11.411Z,11.95
2022-09-28T04:33:10.326Z,11.945
2022-09-28T04:34:10.475Z,11.95
2022-09-28T04:35:10.706Z,11.96
2022-09-28T04:36:11.000Z,11.95
2022-09-28T04:37:11.546Z,11.97
2022-09-28T04:38:11.327Z,11.97
2022-09-28T04:39:09.851Z,11.99
2022-09-28T04:40:12.011Z,11.98
2022-09-28T04:41:11.319Z,11.98
2022-09-28T04:42:09.915Z,11.985
2022-09-28T04:43:11.342Z,12.01
2022-09-28T04:44:11.302Z,12.02
2022-09-28T04:45:10.937Z,12.015
2022-09-28T04:46:11.742Z,12.03
2022-09-28T04:47:10.309Z,12.035
2022-09-28T04:48:10.430Z,12.0327
2022-09-28T04:49:10.652Z,12.0461
2022-09-28T04:50:10.813Z,12.045
2022-09-28T04:51:09.914Z,12.0654
2022-09-28T04:52:17.197Z,12.064
2022-09-28T04:53:10.337Z,12.0818
2022-09-28T04:54:09.723Z,12.085
2022-09-28T04:55:11.272Z,12.092
2022-09-28T04:56:10.025Z,12.0927
2022-09-28T04:57:10.841Z,12.095
2022-09-28T04:58:11.368Z,12.11
2022-09-28T04:59:10.668Z,12.11
2022-09-28T05:00:10.482Z,12.11
2022-09-28T05:01:10.997Z,12.08
2022-09-28T05:02:10.952Z,12.1
2022-09-28T05:03:11.582Z,12.105
2022-09-28T05:04:09.811Z,12.1258
2022-09-28T05:05:10.161Z,12.1316
2022-09-28T05:06:11.122Z,12.137
2022-09-28T05:07:11.391Z,12.1208
2022-09-28T05:08:10.809Z,12.1316
2022-09-28T05:09:11.243Z,12.121
2022-09-28T05:10:11.456Z,12.138
2022-09-28T05:11:10.700Z,12.137
2022-09-28T05:12:11.568Z,12.143
2022-09-28T05:13:11.292Z,12.132
2022-09-28T05:14:09.911Z,12.115
2022-09-28T05:15:11.107Z,12.137
2022-09-28T05:16:10.835Z,12.149
2022-09-28T05:17:09.996Z,12.155
2022-09-28T05:18:11.251Z,12.16
2022-09-28T05:19:09.886Z,12.143
2022-09-28T05:20:10.653Z,12.15
2022-09-28T05:21:11.293Z,12.166
2022-09-28T05:22:10.792Z,12.166
2022-09-28T05:23:10.838Z,12.172
2022-09-28T05:24:10.527Z,12.149
2022-09-28T05:25:11.077Z,12.172
2022-09-28T05:26:10.203Z,12.2
2022-09-28T05:27:11.396Z,12.2
2022-09-28T05:28:10.595Z,12.1891
2022-09-28T05:29:10.104Z,12.1783
2022-09-28T05:30:11.861Z,12.1841
2022-09-28T05:31:10.949Z,12.177
2022-09-28T05:32:10.622Z,12.172
2022-09-28T05:33:11.209Z,12.172
2022-09-28T05:34:10.164Z,12.177
2022-09-28T05:35:10.521Z,12.16
2022-09-28T05:36:11.210Z,12.172
2022-09-28T05:37:10.953Z,12.155
2022-09-28T05:38:11.685Z,12.19
2022-09-28T05:39:10.076Z,12.183
2022-09-28T05:40:10.758Z,12.205
2022-09-28T05:41:11.594Z,12.1783
2022-09-28T05:42:11.033Z,12.198
2022-09-28T05:43:11.259Z,12.195
2022-09-28T05:44:11.002Z,12.193
2022-09-28T05:45:10.544Z,12.1783
2022-09-28T05:46:10.776Z,12.172
2022-09-28T05:47:11.799Z,12.1891
2022-09-28T05:48:11.057Z,12.205
2022-09-28T05:49:10.571Z,12.205
2022-09-28T05:50:11.881Z,12.195
2022-09-28T05:51:10.986Z,12.205
2022-09-28T05:52:10.582Z,12.235
2022-09-28T05:53:11.673Z,12.215
2022-09-28T05:54:10.844Z,12.22
2022-09-28T05:55:11.018Z,12.22
2022-09-28T05:56:10.677Z,12.24
2022-09-28T05:57:11.357Z,12.23
2022-09-28T05:58:10.154Z,12.23
2022-09-28T05:59:11.310Z,12.23
2022-09-28T06:00:10.936Z,12.235
2022-09-28T06:01:10.642Z,12.255
2022-09-28T06:02:11.961Z,12.255
2022-09-28T06:03:10.885Z,12.245
2022-09-28T06:04:10.402Z,12.25
2022-09-28T06:05:11.083Z,12.24
2022-09-28T06:06:10.648Z,12.255
2022-09-28T06:07:10.537Z,12.2772
2022-09-28T06:08:11.249Z,12.2915
2022-09-28T06:09:11.090Z,12.29
2022-09-28T06:10:10.109Z,12.2936
2022-09-28T06:11:11.139Z,12.321
2022-09-28T06:12:10.667Z,12.354
2022-09-28T06:13:11.794Z,12.331
2022-09-28T06:14:11.144Z,12.405
2022-09-28T06:15:10.442Z,12.4018
2022-09-28T06:16:11.693Z,12.4261
2022-09-28T06:17:11.222Z,12.445
2022-09-28T06:18:10.695Z,12.4618
2022-09-28T06:19:11.545Z,12.4261
2022-09-28T06:20:11.080Z,12.429
2022-09-28T06:21:10.963Z,12.45
2022-09-28T06:22:11.194Z,12.44
2022-09-28T06:23:10.881Z,12.42
2022-09-28T06:24:10.688Z,12.425
2022-09-28T06:25:11.370Z,12.425
2022-09-28T06:26:10.286Z,12.415
2022-09-28T06:27:11.396Z,12.405
2022-09-28T06:28:10.650Z,12.42
2022-09-28T06:29:14.716Z,12.43
2022-09-28T06:30:10.842Z,12.44
2022-09-28T06:31:11.588Z,12.43
2022-09-28T06:32:11.680Z,12.485
2022-09-28T06:33:11.163Z,12.46
2022-09-28T06:34:10.214Z,12.475
2022-09-28T06:35:11.666Z,12.485
2022-09-28T06:36:11.608Z,12.485
2022-09-28T06:37:10.627Z,12.505
2022-09-28T06:38:11.265Z,12.495
2022-09-28T06:39:10.811Z,12.5
2022-09-28T06:40:10.192Z,12.485
2022-09-28T06:41:11.262Z,12.54
2022-09-28T06:42:10.818Z,12.545
2022-09-28T06:43:11.009Z,12.575
2022-09-28T06:44:10.450Z,12.637
2022-09-28T06:45:10.978Z,12.632
2022-09-28T06:46:10.400Z,12.6841
2022-09-28T06:47:11.181Z,12.72
2022-09-28T06:48:10.993Z,12.73
2022-09-28T06:49:09.857Z,12.74
2022-09-28T06:50:11.495Z,12.75
2022-09-28T06:51:10.920Z,12.775
2022-09-28T06:52:10.694Z,12.8
2022-09-28T06:53:11.667Z,12.805
2022-09-28T06:54:10.680Z,12.8
2022-09-28T06:55:09.785Z,12.867
2022-09-28T06:56:11.473Z,12.925
2022-09-28T06:57:10.321Z,12.95
2022-09-28T06:58:10.389Z,12.99
2022-09-28T06:59:10.414Z,13.03
2022-09-28T07:00:10.918Z,13.055
2022-09-28T07:01:11.502Z,13.09
2022-09-28T07:02:10.961Z,13.115
2022-09-28T07:03:10.815Z,13.138
2022-09-28T07:04:10.664Z,13.166
2022-09-28T07:05:10.771Z,13.194
2022-09-28T07:06:11.545Z,13.23
2022-09-28T07:07:11.332Z,13.27
2022-09-28T07:08:10.972Z,13.27
2022-09-28T07:09:23.690Z,13.275
2022-09-28T07:10:11.132Z,13.295
2022-09-28T07:11:10.556Z,13.3158
2022-09-28T07:12:11.594Z,13.317
2022-09-28T07:13:33.617Z,13.317
2022-09-28T07:14:11.662Z,13.35
2022-09-28T07:15:11.580Z,13.356
2022-09-28T07:16:11.241Z,13.3791
2022-09-28T07:17:13.639Z,13.3683
2022-09-28T07:18:11.336Z,13.3741
2022-09-28T07:19:10.553Z,13.3741
2022-09-28T07:20:16.741Z,13.4
2022-09-28T07:21:24.441Z,13.43
2022-09-28T07:22:12.268Z,13.435
2022-09-28T07:23:18.933Z,13.45
2022-09-28T07:24:10.527Z,13.475
2022-09-28T07:25:10.647Z,13.52
2022-09-28T07:26:11.217Z,13.54
2022-09-28T07:27:10.745Z,13.555
2022-09-28T07:28:10.686Z,13.57
2022-09-28T07:29:10.352Z,13.58
2022-09-28T07:30:10.585Z,13.57
2022-09-28T07:31:10.292Z,13.565
2022-09-28T07:32:11.473Z,13.564
2022-09-28T07:33:10.761Z,13.58
2022-09-28T07:34:09.795Z,13.5818
2022-09-28T07:35:11.229Z,13.6107
2022-09-28T07:36:11.066Z,13.639
2022-09-28T07:37:10.809Z,13.626
2022-09-28T07:38:11.417Z,13.6107
2022-09-28T07:39:10.100Z,13.6327
2022-09-28T07:40:10.564Z,13.615
2022-09-28T07:41:11.295Z,13.643
2022-09-28T07:42:10.444Z,13.6783
2022-09-28T07:43:11.544Z,13.6783
2022-09-28T07:44:10.593Z,13.694
2022-09-28T07:45:10.955Z,13.74
2022-09-28T07:46:11.406Z,13.75
2022-09-28T07:47:11.206Z,13.775
2022-09-28T07:48:13.042Z,13.795
2022-09-28T07:49:12.358Z,13.805
2022-09-28T07:50:10.913Z,13.8
2022-09-28T07:51:11.399Z,13.822
2022-09-28T07:52:11.371Z,13.85
2022-09-28T07:53:10.905Z,13.884
2022-09-28T07:54:10.680Z,13.905
2022-09-28T07:55:10.754Z,13.93
2022-09-28T07:56:10.276Z,13.985
2022-09-28T07:57:11.550Z,14.045
2022-09-28T07:58:11.447Z,14.08
2022-09-28T07:59:10.381Z,14.155
2022-09-28T08:00:11.644Z,14.1891
2022-09-28T08:01:11.343Z,14.24
2022-09-28T08:02:10.237Z,14.27
2022-09-28T08:03:11.420Z,14.215
2022-09-28T08:04:10.245Z,14.225
2022-09-28T08:05:10.901Z,14.195
2022-09-28T08:06:11.492Z,14.225
2022-09-28T08:07:10.719Z,14.265
2022-09-28T08:08:10.871Z,14.316
2022-09-28T08:09:10.621Z,14.3683
2022-09-28T08:10:10.537Z,14.389
2022-09-28T08:11:10.802Z,14.378
2022-09-28T08:12:11.387Z,14.367
2022-09-28T08:13:11.093Z,14.39
2022-09-28T08:14:10.197Z,14.45
2022-09-28T08:15:11.454Z,14.465
2022-09-28T08:16:10.325Z,14.49
2022-09-28T08:17:10.469Z,14.515
2022-09-28T08:18:11.406Z,14.555
2022-09-28T08:19:10.003Z,14.575
2022-09-28T08:20:11.211Z,14.6258
2022-09-28T08:21:10.885Z,14.643
2022-09-28T08:22:10.410Z,14.666
2022-09-28T08:23:11.518Z,14.694
2022-09-28T08:24:10.221Z,14.695
2022-09-28T08:25:10.540Z,14.76
2022-09-28T08:26:15.331Z,14.785
2022-09-28T08:27:11.188Z,14.795
2022-09-28T08:28:10.654Z,14.775
2022-09-28T08:29:10.227Z,14.77
2022-09-28T08:30:11.035Z,14.8108
2022-09-28T08:31:11.970Z,14.795
2022-09-28T08:32:10.793Z,14.785
2022-09-28T08:33:10.740Z,14.805
2022-09-28T08:34:09.472Z,14.816
2022-09-28T08:35:11.101Z,14.816
2022-09-28T08:36:10.771Z,14.8683
2022-09-28T08:37:10.825Z,14.895
2022-09-28T08:38:11.090Z,14.833
2022-09-28T08:39:09.530Z,14.862
2022-09-28T08:40:11.653Z,14.905
2022-09-28T08:41:11.309Z,14.905
2022-09-28T08:42:10.803Z,14.95
2022-09-28T08:43:11.696Z,14.955
2022-09-28T08:44:10.067Z,14.98
2022-09-28T08:45:12.152Z,14.995
2022-09-28T08:46:11.247Z,15.01
2022-09-28T08:47:10.826Z,15.055
2022-09-28T08:48:11.651Z,15.06
2022-09-28T08:49:24.921Z,15.07
2022-09-28T08:50:11.064Z,15.065
2022-09-28T08:51:11.276Z,15.055
2022-09-28T08:52:10.692Z,15.0654
2022-09-28T08:53:10.918Z,15.0738
2022-09-28T08:54:11.990Z,15.05
2022-09-28T08:55:10.162Z,15.0163
2022-09-28T08:56:11.249Z,15.05
2022-09-28T08:57:10.803Z,15.0381
2022-09-28T08:58:11.540Z,15.032
2022-09-28T08:59:11.020Z,15.045
2022-09-28T09:00:11.780Z,15
2022-09-28T09:01:11.989Z,14.972
2022-09-28T09:02:10.926Z,14.98
2022-09-28T09:03:10.733Z,14.9781
2022-09-28T09:04:10.513Z,15.013
2022-09-28T09:05:11.273Z,14.9836
2022-09-28T09:06:11.407Z,14.98
2022-09-28T09:07:11.627Z,14.967
2022-09-28T09:08:10.972Z,15
2022-09-28T09:09:09.971Z,14.97
2022-09-28T09:10:11.820Z,15
2022-09-28T09:11:11.253Z,15.03
2022-09-28T09:12:10.664Z,15.065
2022-09-28T09:13:11.605Z,15.165
2022-09-28T09:14:10.293Z,15.235
2022-09-28T09:15:10.845Z,15.367
2022-09-28T09:16:11.258Z,15.47
2022-09-28T09:17:11.313Z,15.595
2022-09-28T09:18:10.333Z,15.6783
2022-09-28T09:19:10.118Z,15.77
2022-09-28T09:20:11.489Z,15.816
2022-09-28T09:21:10.763Z,15.872
2022-09-28T09:22:11.434Z,15.92
2022-09-28T09:23:10.889Z,15.97
2022-09-28T09:24:09.659Z,16.05
2022-09-28T09:25:11.045Z,16.115
2022-09-28T09:26:10.221Z,16.182
2022-09-28T09:27:10.983Z,16.29
2022-09-28T09:28:10.738Z,16.367
2022-09-28T09:29:09.571Z,16.45
2022-09-28T09:30:11.113Z,16.46
2022-09-28T09:31:11.146Z,16.465
2022-09-28T09:32:10.700Z,16.475
2022-09-28T09:33:11.798Z,16.485
2022-09-28T09:34:10.223Z,16.475
2022-09-28T09:35:10.663Z,16.445
2022-09-28T09:36:11.466Z,16.425
2022-09-28T09:37:11.051Z,16.39
2022-09-28T09:38:11.636Z,16.345
2022-09-28T09:39:10.688Z,16.367
2022-09-28T09:40:10.384Z,16.395
2022-09-28T09:41:11.006Z,16.42
2022-09-28T09:42:10.913Z,16.455
2022-09-28T09:43:10.886Z,16.52
2022-09-28T09:44:10.731Z,16.545
2022-09-28T09:45:11.249Z,16.565
2022-09-28T09:46:10.280Z,16.61
2022-09-28T09:47:11.307Z,16.66
2022-09-28T09:48:11.057Z,16.688
2022-09-28T09:49:10.790Z,16.74
2022-09-28T09:50:11.353Z,16.805
2022-09-28T09:51:10.777Z,16.8158
2022-09-28T09:52:11.613Z,16.755
2022-09-28T09:53:11.377Z,16.755
2022-09-28T09:54:10.340Z,16.745
2022-09-28T09:55:11.500Z,16.74
2022-09-28T09:56:10.360Z,16.745
2022-09-28T09:57:10.753Z,16.785
2022-09-28T09:58:11.212Z,16.827
2022-09-28T09:59:10.205Z,16.8683
2022-09-28T10:00:11.731Z,16.8791
2022-09-28T10:01:11.380Z,16.872
2022-09-28T10:02:11.912Z,16.89
2022-09-28T10:03:11.413Z,16.925
2022-09-28T10:04:10.175Z,17.005
2022-09-28T10:05:10.891Z,17.06
2022-09-28T10:06:11.565Z,17.055
2022-09-28T10:07:11.574Z,17.015
2022-09-28T10:08:10.087Z,17.005
2022-09-28T10:09:10.229Z,17.005
2022-09-28T10:10:11.215Z,17
2022-09-28T10:11:10.970Z,17.04
2022-09-28T10:12:11.175Z,17.075
2022-09-28T10:13:11.085Z,17.115
2022-09-28T10:14:09.274Z,17.1145
2022-09-28T10:15:11.250Z,17.1253
2022-09-28T10:16:10.811Z,17.115
2022-09-28T10:17:10.450Z,17.1327
2022-09-28T10:18:11.152Z,17.1061
2022-09-28T10:19:10.064Z,17.11
2022-09-28T10:20:10.047Z,17.126
2022-09-28T10:21:10.989Z,17.152
2022-09-28T10:22:10.343Z,17.17
2022-09-28T10:23:11.205Z,17.143
2022-09-28T10:24:10.246Z,17.126
2022-09-28T10:25:10.749Z,17.149
2022-09-28T10:26:10.873Z,17.16
2022-09-28T10:27:10.973Z,17.189
2022-09-28T10:28:10.069Z,17.209
2022-09-28T10:29:10.469Z,17.205
2022-09-28T10:30:10.887Z,17.215
2022-09-28T10:31:11.387Z,17.188
2022-09-28T10:32:10.427Z,17.182
2022-09-28T10:33:10.666Z,17.195
2022-09-28T10:34:10.473Z,17.21
2022-09-28T10:35:10.792Z,17.26
2022-09-28T10:36:10.558Z,17.295
2022-09-28T10:37:11.659Z,17.339
2022-09-28T10:38:10.648Z,17.393
2022-09-28T10:39:10.518Z,17.44
2022-09-28T10:40:10.637Z,17.46
2022-09-28T10:41:11.014Z,17.485
2022-09-28T10:42:10.686Z,17.52
2022-09-28T10:43:11.485Z,17.55
2022-09-28T10:44:10.122Z,17.59
2022-09-28T10:45:12.015Z,17.615
2022-09-28T10:46:11.182Z,17.6258
2022-09-28T10:47:10.711Z,17.643
2022-09-28T10:48:11.647Z,17.6316
2022-09-28T10:49:10.212Z,17.638
2022-09-28T10:50:10.821Z,17.555
2022-09-28T10:51:11.722Z,17.505
2022-09-28T10:52:10.994Z,17.515
2022-09-28T10:53:11.229Z,17.495
2022-09-28T10:54:10.609Z,17.525
2022-09-28T10:55:11.138Z,17.57
2022-09-28T10:56:11.066Z,17.58
2022-09-28T10:57:13.504Z,17.615
2022-09-28T10:58:11.341Z,17.649
2022-09-28T10:59:09.880Z,17.66
2022-09-28T11:00:11.504Z,17.672
2022-09-28T11:01:11.307Z,17.672
2022-09-28T11:02:10.620Z,17.6841
2022-09-28T11:03:11.261Z,17.69
2022-09-28T11:04:09.849Z,17.6891
2022-09-28T11:05:10.806Z,17.7
2022-09-28T11:06:11.210Z,17.688
2022-09-28T11:07:11.744Z,17.672
2022-09-28T11:08:11.785Z,17.655
2022-09-28T11:09:10.401Z,17.632
2022-09-28T11:10:10.260Z,17.6258
2022-09-28T11:11:11.169Z,17.649
2022-09-28T11:12:11.124Z,17.695
2022-09-28T11:13:10.529Z,17.72
2022-09-28T11:14:10.891Z,17.75
2022-09-28T11:15:10.539Z,17.74
2022-09-28T11:16:10.915Z,17.705
2022-09-28T11:17:11.061Z,17.693
2022-09-28T11:18:10.318Z,17.595
2022-09-28T11:19:10.253Z,17.59
2022-09-28T11:20:11.051Z,17.59
2022-09-28T11:21:12.942Z,17.585
2022-09-28T11:22:12.752Z,17.57
2022-09-28T11:23:10.493Z,17.535
2022-09-28T11:24:09.293Z,17.505
2022-09-28T11:25:10.438Z,17.5
2022-09-28T11:26:11.195Z,17.46
2022-09-28T11:27:11.581Z,17.47
2022-09-28T11:28:10.575Z,17.455
2022-09-28T11:29:09.434Z,17.445
2022-09-28T11:30:11.288Z,17.455
2022-09-28T11:31:11.076Z,17.485
2022-09-28T11:32:15.525Z,17.545
2022-09-28T11:33:10.996Z,17.57
2022-09-28T11:34:09.688Z,17.61
2022-09-28T11:35:11.442Z,17.615
2022-09-28T11:36:11.309Z,17.649
2022-09-28T11:37:10.454Z,17.666
2022-09-28T11:38:11.184Z,17.671
2022-09-28T11:39:10.252Z,17.71
2022-09-28T11:40:10.025Z,17.75
2022-09-28T11:41:11.395Z,17.7453
2022-09-28T11:42:14.208Z,17.7554
2022-09-28T11:43:12.349Z,17.7592
2022-09-28T11:44:10.230Z,17.765
2022-09-28T11:45:10.860Z,17.799
2022-09-28T11:46:10.915Z,17.777
2022-09-28T11:47:11.024Z,17.7936
2022-09-28T11:48:10.396Z,17.785
2022-09-28T11:49:11.392Z,17.78
2022-09-28T11:50:11.371Z,17.833
2022-09-28T11:51:11.776Z,17.7961
2022-09-28T11:52:11.151Z,17.7936
2022-09-28T11:53:10.893Z,17.805
2022-09-28T11:54:10.304Z,17.78
2022-09-28T11:55:11.306Z,17.77
2022-09-28T11:56:10.960Z,17.78
2022-09-28T11:57:11.531Z,17.735
2022-09-28T11:58:10.522Z,17.71
2022-09-28T11:59:11.890Z,17.715
2022-09-28T12:00:11.235Z,17.6783
2022-09-28T12:01:10.428Z,17.643
2022-09-28T12:02:11.686Z,17.59
2022-09-28T12:03:11.464Z,17.585
2022-09-28T12:04:09.778Z,17.565
2022-09-28T12:05:11.589Z,17.575
2022-09-28T12:06:11.161Z,17.565
2022-09-28T12:07:10.881Z,17.53
2022-09-28T12:08:11.247Z,17.54
2022-09-28T12:09:10.019Z,17.565
2022-09-28T12:10:11.023Z,17.545
2022-09-28T12:11:11.781Z,17.55
2022-09-28T12:12:10.722Z,17.56
2022-09-28T12:13:10.911Z,17.565
2022-09-28T12:14:10.270Z,17.585
2022-09-28T12:15:11.500Z,17.58
2022-09-28T12:16:38.401Z,17.575
2022-09-28T12:17:11.788Z,17.565
2022-09-28T12:18:11.234Z,17.505
2022-09-28T12:19:09.927Z,17.51
2022-09-28T12:20:10.990Z,17.53
2022-09-28T12:21:11.293Z,17.51
2022-09-28T12:22:10.590Z,17.495
2022-09-28T12:23:11.640Z,17.485
2022-09-28T12:24:10.106Z,17.48
2022-09-28T12:25:10.545Z,17.475
2022-09-28T12:26:10.940Z,17.47
2022-09-28T12:27:10.606Z,17.485
2022-09-28T12:28:11.351Z,17.49
2022-09-28T12:29:10.163Z,17.49
2022-09-28T12:30:09.905Z,17.495
2022-09-28T12:31:11.507Z,17.47
2022-09-28T12:32:10.882Z,17.45
2022-09-28T12:33:10.634Z,17.42
2022-09-28T12:34:09.920Z,17.415